Time;durP1;ratioP1;P1;durP2;ratioP2;P2;SDS_P1;SDS_P2;PMS_P1;PMS_P2;Temp;Humidity;BMP_temperature;BMP_pressure;BME280_temperature;BME280_humidity;BME280_pressure;Samples;Min_cycle;Max_cycle;Signal;HPM_P1;HPM_P2
2022/12/24 00:01:54;;;;;;;3.90;1.57;;;10.10;99.90;;;;;;5028830;28;20913;-68
2022/12/24 00:04:20;;;;;;;5.43;1.70;;;10.20;99.90;;;;;;5032251;28;20546;-68
2022/12/24 00:06:46;;;;;;;2.37;1.43;;;10.20;99.90;;;;;;5031254;28;20197;-68
2022/12/24 00:09:11;;;;;;;7.30;1.30;;;10.20;99.90;;;;;;5032550;28;20185;-69
2022/12/24 00:11:37;;;;;;;6.30;1.70;;;10.20;99.90;;;;;;5032350;28;20449;-68
2022/12/24 00:14:02;;;;;;;4.87;1.70;;;10.30;99.90;;;;;;5030643;28;20570;-68
2022/12/24 00:16:28;;;;;;;4.50;2.93;;;10.30;99.90;;;;;;5033446;28;20178;-68
2022/12/24 00:18:53;;;;;;;3.23;2.27;;;10.30;99.90;;;;;;5032475;28;20202;-68
2022/12/24 00:21:19;;;;;;;4.50;2.40;;;10.20;99.90;;;;;;5031147;28;20182;-68
2022/12/24 00:23:44;;;;;;;3.40;2.07;;;10.20;99.90;;;;;;5029672;28;20202;-68
2022/12/24 00:26:12;;;;;;;1.80;1.40;;;10.10;99.90;;;;;;5032564;28;20174;-68
2022/12/24 00:28:37;;;;;;;5.40;1.80;;;10.10;99.90;;;;;;5029593;28;20193;-68
2022/12/24 00:31:15;;;;;;;4.67;1.43;;;10.10;99.90;;;;;;5032060;28;20433;-68
2022/12/24 00:33:41;;;;;;;3.13;1.50;;;10.10;99.90;;;;;;5030955;28;20194;-68
2022/12/24 00:36:08;;;;;;;3.90;1.80;;;10.20;99.90;;;;;;5023895;28;20444;-69
2022/12/24 00:38:33;;;;;;;4.37;2.07;;;10.10;99.90;;;;;;5030807;28;20442;-68
2022/12/24 00:41:01;;;;;;;5.67;2.63;;;10.10;99.90;;;;;;5031024;28;20449;-68
2022/12/24 00:43:28;;;;;;;4.17;1.77;;;10.10;99.90;;;;;;5031078;28;20269;-68
2022/12/24 00:45:54;;;;;;;8.57;3.23;;;10.10;99.90;;;;;;5031742;28;20429;-69
2022/12/24 00:48:19;;;;;;;4.47;3.00;;;10.10;99.90;;;;;;5030932;28;20435;-68
2022/12/24 00:50:45;;;;;;;2.80;1.90;;;10.10;99.90;;;;;;5031237;28;20235;-69
2022/12/24 00:53:10;;;;;;;3.87;1.80;;;10.10;99.90;;;;;;5030522;28;20229;-69
2022/12/24 00:55:36;;;;;;;5.27;2.20;;;10.10;99.90;;;;;;5027149;28;20913;-69
2022/12/24 00:58:01;;;;;;;7.00;1.80;;;10.00;99.90;;;;;;5030539;28;20174;-69
2022/12/24 01:00:27;;;;;;;3.33;1.70;;;10.00;99.90;;;;;;5030464;28;20178;-69
2022/12/24 01:02:52;;;;;;;2.90;2.27;;;9.90;99.90;;;;;;5030222;28;20202;-69
2022/12/24 01:05:19;;;;;;;3.17;2.17;;;9.90;99.90;;;;;;5030336;28;20178;-68
2022/12/24 01:07:46;;;;;;;5.63;2.23;;;9.90;99.90;;;;;;5031835;28;20187;-69
2022/12/24 01:10:14;;;;;;;5.67;1.90;;;9.90;99.90;;;;;;5027887;28;20445;-69
2022/12/24 01:12:39;;;;;;;2.93;1.23;;;9.90;99.90;;;;;;5030644;28;20563;-68
2022/12/24 01:15:05;;;;;;;2.60;1.80;;;9.90;99.90;;;;;;5030757;28;20547;-69
2022/12/24 01:17:32;;;;;;;4.50;4.00;;;10.00;99.90;;;;;;5029821;28;20179;-69
2022/12/24 01:19:58;;;;;;;3.60;1.63;;;10.00;99.90;;;;;;5031190;28;20433;-69
2022/12/24 01:22:23;;;;;;;7.10;2.00;;;10.00;99.90;;;;;;5028882;28;20510;-69
2022/12/24 01:24:49;;;;;;;6.47;2.17;;;9.90;99.90;;;;;;5026481;28;20278;-69
2022/12/24 01:27:14;;;;;;;4.07;1.90;;;10.00;99.90;;;;;;5026650;28;20225;-68
2022/12/24 01:29:40;;;;;;;4.37;1.67;;;10.00;99.90;;;;;;5023752;28;20190;-69
2022/12/24 01:32:06;;;;;;;5.53;1.90;;;10.10;99.90;;;;;;5030571;28;20762;-68
2022/12/24 01:34:31;;;;;;;3.70;1.90;;;10.10;99.90;;;;;;5031965;28;20202;-69
2022/12/24 01:36:57;;;;;;;6.67;2.30;;;10.20;99.90;;;;;;5030694;28;20249;-69
2022/12/24 01:39:22;;;;;;;3.90;1.83;;;10.20;99.90;;;;;;5028806;28;20174;-69
2022/12/24 01:44:35;;;;;;;5.40;2.83;;;10.20;99.90;;;;;;5030804;28;20232;-69
2022/12/24 01:47:03;;;;;;;4.83;1.83;;;10.30;99.90;;;;;;5031234;28;20441;-68
2022/12/24 01:49:29;;;;;;;4.63;1.80;;;10.30;99.90;;;;;;5031329;28;20567;-69
2022/12/24 01:52:03;;;;;;;9.13;2.57;;;10.30;99.90;;;;;;5031004;28;20522;-68
2022/12/24 01:54:36;;;;;;;5.20;2.20;;;10.30;99.90;;;;;;5031621;28;20452;-69
2022/12/24 01:57:28;;;;;;;4.03;2.00;;;10.40;99.90;;;;;;5031455;28;20433;-68
2022/12/24 01:59:58;;;;;;;8.30;2.00;;;10.40;99.90;;;;;;5023672;28;20528;-69
2022/12/24 02:02:26;;;;;;;6.70;2.30;;;10.40;99.90;;;;;;5029631;28;20461;-68
2022/12/24 02:04:54;;;;;;;6.03;2.37;;;10.40;99.90;;;;;;5027384;28;20813;-69
2022/12/24 02:07:20;;;;;;;7.60;1.90;;;10.30;99.90;;;;;;5028085;28;20445;-69
2022/12/24 02:09:48;;;;;;;11.70;2.60;;;10.20;99.90;;;;;;5029336;28;20826;-69
2022/12/24 02:12:14;;;;;;;8.50;2.53;;;10.20;99.90;;;;;;5029640;28;20213;-69
2022/12/24 02:14:39;;;;;;;5.83;2.40;;;10.20;99.90;;;;;;5030232;28;21049;-70
2022/12/24 02:17:40;;;;;;;3.20;1.83;;;10.20;99.90;;;;;;5030629;28;20202;-68
2022/12/24 02:20:14;;;;;;;9.23;2.20;;;10.20;99.90;;;;;;4989631;28;20209;-68
2022/12/24 02:22:57;;;;;;;6.43;2.03;;;10.30;99.90;;;;;;5028308;28;20981;-69
2022/12/24 02:26:02;;;;;;;4.73;3.13;;;10.10;99.90;;;;;;5029056;28;20437;-69
2022/12/24 02:28:44;;;;;;;4.63;1.90;;;10.10;99.90;;;;;;5012645;28;20456;-69
2022/12/24 02:31:20;;;;;;;7.10;2.23;;;10.20;99.90;;;;;;5025070;28;20433;-68
2022/12/24 02:33:57;;;;;;;7.53;2.47;;;10.20;99.90;;;;;;5027708;28;20500;-69
2022/12/24 02:36:41;;;;;;;4.17;2.30;;;10.10;99.90;;;;;;5027473;28;20449;-70
2022/12/24 02:39:21;;;;;;;9.63;2.67;;;10.10;99.90;;;;;;5028253;28;20443;-69
2022/12/24 02:42:07;;;;;;;3.50;1.97;;;10.10;99.90;;;;;;5030895;28;20973;-69
2022/12/24 02:44:39;;;;;;;5.40;2.80;;;10.10;99.90;;;;;;5030709;28;20543;-69
2022/12/24 02:47:07;;;;;;;8.67;2.37;;;10.10;99.90;;;;;;5029360;28;20449;-69
2022/12/24 02:49:33;;;;;;;3.27;2.07;;;10.00;99.90;;;;;;5030856;28;20447;-69
2022/12/24 02:51:59;;;;;;;7.57;2.17;;;9.90;99.90;;;;;;5029902;28;20464;-69
2022/12/24 02:54:24;;;;;;;5.83;2.30;;;9.80;99.90;;;;;;5030967;28;20961;-69
2022/12/24 02:57:11;;;;;;;6.50;2.53;;;9.80;99.90;;;;;;5030746;28;20174;-69
2022/12/24 02:59:56;;;;;;;7.17;2.20;;;9.80;99.90;;;;;;5030822;28;20186;-69
2022/12/24 03:02:24;;;;;;;7.23;2.43;;;9.80;99.90;;;;;;5029393;28;20463;-69
2022/12/24 03:05:35;;;;;;;6.17;2.93;;;9.90;99.90;;;;;;5029738;28;20802;-70
2022/12/24 03:08:24;;;;;;;4.33;2.27;;;10.00;99.90;;;;;;5025105;28;20547;-69
2022/12/24 03:10:56;;;;;;;16.43;3.37;;;10.00;99.90;;;;;;5023052;28;20445;-69
2022/12/24 03:13:23;;;;;;;4.13;2.10;;;10.00;99.90;;;;;;5029742;28;20478;-69
2022/12/24 03:15:49;;;;;;;6.10;2.40;;;10.00;99.90;;;;;;5030807;28;20453;-69
2022/12/24 03:18:22;;;;;;;12.17;3.00;;;10.00;99.90;;;;;;5032056;28;20449;-69
2022/12/24 03:21:12;;;;;;;7.33;2.13;;;10.00;99.90;;;;;;5034590;28;20436;-70
2022/12/24 03:23:38;;;;;;;4.23;1.97;;;9.90;99.90;;;;;;5032953;28;20502;-70
2022/12/24 03:26:07;;;;;;;5.80;3.30;;;9.90;99.90;;;;;;5032986;28;20436;-69
2022/12/24 03:28:34;;;;;;;13.60;4.40;;;9.90;99.90;;;;;;5033646;28;20324;-69
2022/12/24 03:31:02;;;;;;;7.63;2.27;;;9.90;99.90;;;;;;5032779;28;20451;-69
2022/12/24 03:33:28;;;;;;;6.40;2.27;;;9.90;99.90;;;;;;5034251;28;20453;-69
2022/12/24 03:35:54;;;;;;;8.07;2.50;;;9.90;99.90;;;;;;5034460;28;20467;-69
2022/12/24 03:38:19;;;;;;;6.57;2.20;;;10.00;99.90;;;;;;5033919;28;20186;-69
2022/12/24 03:40:45;;;;;;;9.90;2.43;;;10.00;99.90;;;;;;5031668;28;20268;-69
2022/12/24 03:43:10;;;;;;;5.13;2.20;;;9.90;99.90;;;;;;5032249;28;20422;-69
2022/12/24 03:45:35;;;;;;;9.00;2.77;;;10.00;99.90;;;;;;5032428;28;20626;-70
2022/12/24 03:48:01;;;;;;;7.90;2.50;;;10.00;99.90;;;;;;5032238;28;20186;-69
2022/12/24 03:50:26;;;;;;;9.00;4.20;;;10.00;99.90;;;;;;5033622;28;20221;-69
2022/12/24 03:52:54;;;;;;;7.70;2.77;;;10.00;99.90;;;;;;5033524;28;20317;-70
2022/12/24 03:55:19;;;;;;;4.83;1.80;;;10.00;99.90;;;;;;5033815;28;20638;-69
2022/12/24 03:57:45;;;;;;;8.23;3.10;;;10.10;99.90;;;;;;5033881;28;20480;-69
2022/12/24 04:00:11;;;;;;;5.23;2.80;;;10.10;99.90;;;;;;5033888;28;20182;-69
2022/12/24 04:02:37;;;;;;;6.50;2.47;;;10.00;99.90;;;;;;5032888;28;20210;-70
2022/12/24 04:05:02;;;;;;;10.13;2.50;;;9.90;99.90;;;;;;5031538;28;20534;-69
2022/12/24 04:07:28;;;;;;;6.47;2.00;;;9.90;99.90;;;;;;5033070;28;20371;-69
2022/12/24 04:09:53;;;;;;;4.90;2.13;;;9.80;99.90;;;;;;5032491;28;20189;-69
2022/12/24 04:12:19;;;;;;;9.57;2.60;;;9.80;99.90;;;;;;5031455;28;20213;-69
2022/12/24 04:14:44;;;;;;;10.00;2.43;;;9.70;99.90;;;;;;5027398;28;20222;-68
2022/12/24 04:17:10;;;;;;;5.83;2.97;;;9.70;99.90;;;;;;5032756;28;20206;-68
2022/12/24 04:19:35;;;;;;;5.60;2.60;;;9.70;99.90;;;;;;5030626;28;20197;-69
2022/12/24 04:22:01;;;;;;;9.40;2.20;;;9.60;99.90;;;;;;5033449;28;20202;-69
2022/12/24 04:24:26;;;;;;;4.53;1.90;;;9.50;99.90;;;;;;5030545;28;20174;-70
2022/12/24 04:26:52;;;;;;;10.30;2.87;;;9.50;99.90;;;;;;5029401;28;20193;-69
2022/12/24 04:29:17;;;;;;;6.43;2.60;;;9.40;99.90;;;;;;5023146;28;20179;-69
2022/12/24 04:31:43;;;;;;;9.20;2.60;;;9.40;99.90;;;;;;5032114;28;20705;-69
2022/12/24 04:34:08;;;;;;;6.67;2.63;;;9.30;99.90;;;;;;5031397;28;20194;-68
2022/12/24 04:36:34;;;;;;;11.70;3.23;;;9.30;99.90;;;;;;5029179;28;20592;-70
2022/12/24 04:38:59;;;;;;;6.33;2.40;;;9.30;99.90;;;;;;5031557;28;20189;-69
2022/12/24 04:41:25;;;;;;;3.83;2.27;;;9.30;99.90;;;;;;5031522;28;20177;-69
2022/12/24 04:43:54;;;;;;;11.10;3.23;;;9.30;99.90;;;;;;5030960;28;20214;-69
2022/12/24 04:46:22;;;;;;;10.40;2.70;;;9.30;99.90;;;;;;5033137;28;20186;-69
2022/12/24 04:48:50;;;;;;;8.67;2.20;;;9.30;99.90;;;;;;5032691;28;20440;-69
2022/12/24 04:51:16;;;;;;;5.43;2.37;;;9.20;99.90;;;;;;5031437;28;20455;-69
2022/12/24 04:53:42;;;;;;;13.73;2.90;;;9.20;99.90;;;;;;5031129;28;20882;-69
2022/12/24 04:56:20;;;;;;;8.37;2.90;;;9.30;99.90;;;;;;5031101;28;20457;-69
2022/12/24 04:58:46;;;;;;;8.10;2.13;;;9.20;99.90;;;;;;5032341;28;20937;-69
2022/12/24 05:01:14;;;;;;;3.97;2.07;;;9.30;99.90;;;;;;5030760;28;20443;-69
2022/12/24 05:03:40;;;;;;;6.23;2.47;;;9.30;99.90;;;;;;5031181;28;20198;-69
2022/12/24 05:06:09;;;;;;;7.03;2.40;;;9.30;99.90;;;;;;5032645;28;20467;-69
2022/12/24 05:08:34;;;;;;;7.63;2.17;;;9.30;99.90;;;;;;5032171;28;20244;-69
2022/12/24 05:11:01;;;;;;;7.37;2.33;;;9.30;99.90;;;;;;5030919;28;20804;-69
2022/12/24 05:13:28;;;;;;;6.80;2.23;;;9.30;99.90;;;;;;5030610;28;20214;-69
2022/12/24 05:15:53;;;;;;;3.70;1.90;;;9.30;99.90;;;;;;5026588;28;20465;-69
2022/12/24 05:18:19;;;;;;;5.43;2.93;;;9.30;99.90;;;;;;5031142;28;20531;-69
2022/12/24 05:20:45;;;;;;;6.40;2.33;;;9.30;99.90;;;;;;5031366;28;20953;-69
2022/12/24 05:26:22;;;;;;;8.97;2.50;;;9.40;99.90;;;;;;5023315;28;20430;-69
2022/12/24 05:28:50;;;;;;;10.03;2.63;;;9.50;99.90;;;;;;5030752;28;20428;-69
2022/12/24 05:31:16;;;;;;;7.57;2.67;;;9.50;99.90;;;;;;5030205;28;20432;-69
2022/12/24 05:33:41;;;;;;;7.80;2.40;;;9.50;99.90;;;;;;5023340;28;20454;-69
2022/12/24 05:36:08;;;;;;;6.83;2.00;;;9.50;99.90;;;;;;5029973;28;20601;-70
2022/12/24 05:38:33;;;;;;;10.70;2.70;;;9.50;99.90;;;;;;5028926;28;20605;-69
2022/12/24 05:40:59;;;;;;;4.10;1.87;;;9.50;99.90;;;;;;5030902;28;20441;-69
2022/12/24 05:43:25;;;;;;;7.53;2.33;;;9.50;99.90;;;;;;5031725;28;20248;-69
2022/12/24 05:45:50;;;;;;;3.90;2.10;;;9.40;99.90;;;;;;5029226;28;20197;-69
2022/12/24 05:48:16;;;;;;;7.40;2.80;;;9.40;99.90;;;;;;5028972;28;20437;-69
2022/12/24 05:50:41;;;;;;;9.33;2.77;;;9.40;99.90;;;;;;5031751;28;20597;-69
2022/12/24 05:53:07;;;;;;;7.53;2.67;;;9.40;99.90;;;;;;5031661;28;20244;-69
2022/12/24 05:55:33;;;;;;;6.07;2.60;;;9.40;99.90;;;;;;5031506;28;20279;-69
2022/12/24 05:57:58;;;;;;;4.70;2.80;;;9.30;99.90;;;;;;5031583;28;20612;-69
2022/12/24 06:00:24;;;;;;;8.33;2.70;;;9.30;99.90;;;;;;5030099;28;20188;-70
2022/12/24 06:02:49;;;;;;;11.77;3.30;;;9.30;99.90;;;;;;5029423;28;20202;-69
2022/12/24 06:05:15;;;;;;;4.43;2.90;;;9.30;99.90;;;;;;5027350;28;20605;-69
2022/12/24 06:07:41;;;;;;;7.33;3.13;;;9.20;99.90;;;;;;5029895;28;20204;-69
2022/12/24 06:10:07;;;;;;;8.40;2.70;;;9.20;99.90;;;;;;5031254;28;20236;-69
2022/12/24 06:12:33;;;;;;;4.60;2.00;;;9.20;99.90;;;;;;5030818;28;20237;-69
2022/12/24 06:14:59;;;;;;;6.90;2.67;;;9.10;99.90;;;;;;5023303;28;20495;-69
2022/12/24 06:17:24;;;;;;;9.40;2.30;;;9.10;99.90;;;;;;5028780;28;20175;-69
2022/12/24 06:19:50;;;;;;;8.40;2.73;;;9.10;99.90;;;;;;5030790;28;20177;-69
2022/12/24 06:22:15;;;;;;;3.77;2.10;;;9.10;99.90;;;;;;5031246;28;20198;-69
2022/12/24 06:24:41;;;;;;;9.13;1.97;;;9.10;99.90;;;;;;5030130;28;20177;-70
2022/12/24 06:27:07;;;;;;;6.93;2.30;;;9.10;99.90;;;;;;5026392;28;20183;-69
2022/12/24 06:29:32;;;;;;;7.07;2.93;;;9.10;99.90;;;;;;5030762;28;20185;-70
2022/12/24 06:31:58;;;;;;;6.37;2.10;;;9.10;99.90;;;;;;5031159;28;20193;-70
2022/12/24 06:34:23;;;;;;;5.07;2.10;;;9.10;99.90;;;;;;5031277;28;20202;-69
2022/12/24 06:36:49;;;;;;;9.00;2.60;;;9.10;99.90;;;;;;5028461;28;20178;-69
2022/12/24 06:39:14;;;;;;;11.43;2.57;;;9.10;99.90;;;;;;5028622;28;20177;-69
2022/12/24 06:41:40;;;;;;;9.97;2.80;;;9.00;99.90;;;;;;5028858;28;20177;-70
2022/12/24 06:44:05;;;;;;;3.50;1.97;;;8.90;99.90;;;;;;5030535;28;20181;-69
2022/12/24 06:46:31;;;;;;;6.43;2.57;;;8.90;99.90;;;;;;5028828;28;20532;-70
2022/12/24 06:48:56;;;;;;;5.60;2.93;;;8.90;99.90;;;;;;5028373;28;20182;-69
2022/12/24 06:51:22;;;;;;;8.10;2.73;;;8.90;99.90;;;;;;5029411;28;20659;-69
2022/12/24 06:53:51;;;;;;;13.33;2.70;;;9.00;99.90;;;;;;5027251;28;20197;-69
2022/12/24 06:56:18;;;;;;;3.50;2.30;;;9.00;99.90;;;;;;5030741;28;20260;-69
2022/12/24 06:58:44;;;;;;;5.00;2.23;;;9.10;99.90;;;;;;5034273;28;20816;-69
2022/12/24 07:01:14;;;;;;;14.37;3.07;;;9.10;99.90;;;;;;5034116;28;20519;-70
2022/12/24 07:03:39;;;;;;;5.07;1.90;;;9.20;99.90;;;;;;5034596;28;20682;-69
2022/12/24 07:06:06;;;;;;;8.20;2.67;;;9.20;99.90;;;;;;5032593;28;20441;-69
2022/12/24 07:08:32;;;;;;;4.53;2.20;;;9.30;99.90;;;;;;5034318;28;20732;-69
2022/12/24 07:10:59;;;;;;;6.33;2.60;;;9.30;99.90;;;;;;5033131;28;20437;-69
2022/12/24 07:13:24;;;;;;;12.10;3.20;;;9.30;99.90;;;;;;5031920;28;20967;-69
2022/12/24 07:16:01;;;;;;;8.40;3.20;;;9.40;99.90;;;;;;5028846;28;20472;-70
2022/12/24 07:18:27;;;;;;;7.27;3.37;;;9.30;99.90;;;;;;5030944;28;20258;-69
2022/12/24 07:20:52;;;;;;;8.90;2.67;;;9.40;99.90;;;;;;5031464;28;20445;-70
2022/12/24 07:23:18;;;;;;;4.83;2.63;;;9.30;99.90;;;;;;5034298;28;20530;-69
2022/12/24 07:25:44;;;;;;;8.87;3.10;;;9.30;99.90;;;;;;5032885;28;20178;-69
2022/12/24 07:28:09;;;;;;;8.70;2.90;;;9.20;99.90;;;;;;5030492;28;20712;-70
2022/12/24 07:30:35;;;;;;;11.00;2.70;;;9.20;99.90;;;;;;5033415;28;20598;-70
2022/12/24 07:33:00;;;;;;;7.87;3.27;;;9.20;99.90;;;;;;5034274;28;20276;-69
2022/12/24 07:35:26;;;;;;;10.30;3.30;;;9.30;99.90;;;;;;5034123;28;20655;-70
2022/12/24 07:37:52;;;;;;;5.63;2.70;;;9.30;99.90;;;;;;5032578;28;20258;-70
2022/12/24 07:40:17;;;;;;;9.93;2.90;;;9.30;99.90;;;;;;5032056;28;20596;-69
2022/12/24 07:42:42;;;;;;;4.20;2.27;;;9.30;99.90;;;;;;5032205;28;20209;-69
2022/12/24 07:45:09;;;;;;;10.73;2.70;;;9.30;99.90;;;;;;5033800;28;20182;-69
2022/12/24 07:47:35;;;;;;;8.73;3.20;;;9.30;99.90;;;;;;5032036;28;20269;-69
2022/12/24 07:50:01;;;;;;;7.53;2.43;;;9.30;99.90;;;;;;5032004;28;20976;-69
2022/12/24 07:52:26;;;;;;;7.80;2.67;;;9.40;99.90;;;;;;5031485;28;20559;-68
2022/12/24 07:54:52;;;;;;;6.47;3.00;;;9.30;99.90;;;;;;5033714;28;20449;-69
2022/12/24 07:57:17;;;;;;;11.80;3.63;;;9.30;99.90;;;;;;5033869;28;20285;-69
2022/12/24 07:59:42;;;;;;;9.40;3.03;;;9.30;99.90;;;;;;5032759;28;20715;-69
2022/12/24 08:02:10;;;;;;;5.67;3.17;;;9.30;99.90;;;;;;5025176;28;20206;-68
2022/12/24 08:04:35;;;;;;;6.10;3.13;;;9.30;99.90;;;;;;5033552;28;20183;-69
2022/12/24 08:07:03;;;;;;;12.00;3.00;;;9.30;99.90;;;;;;5032715;28;21252;-68
2022/12/24 08:09:31;;;;;;;8.13;2.87;;;9.30;99.90;;;;;;5033141;28;20534;-69
2022/12/24 08:11:56;;;;;;;9.50;3.37;;;9.30;99.90;;;;;;5032693;28;20504;-67
2022/12/24 08:14:22;;;;;;;8.43;3.70;;;9.40;99.90;;;;;;5033455;28;20503;-67
2022/12/24 08:16:47;;;;;;;12.43;5.20;;;9.40;99.90;;;;;;5031489;28;20583;-68
2022/12/24 08:19:13;;;;;;;7.00;3.63;;;9.30;99.90;;;;;;5032717;28;20175;-68
2022/12/24 08:21:38;;;;;;;6.60;3.53;;;9.40;99.90;;;;;;5030971;28;20187;-69
2022/12/24 08:24:04;;;;;;;11.20;3.63;;;9.30;99.90;;;;;;5032078;28;20601;-70
2022/12/24 08:26:29;;;;;;;6.53;2.77;;;9.30;99.90;;;;;;5032087;28;20175;-71
2022/12/24 08:28:55;;;;;;;10.87;4.27;;;9.30;99.90;;;;;;5033694;28;20162;-71
2022/12/24 08:31:20;;;;;;;9.40;3.17;;;9.30;99.90;;;;;;5033738;28;20166;-71
2022/12/24 08:33:46;;;;;;;9.60;2.80;;;9.30;99.90;;;;;;5033947;28;20273;-71
2022/12/24 08:36:11;;;;;;;4.07;2.43;;;9.40;99.90;;;;;;5033932;28;20206;-71
2022/12/24 08:38:37;;;;;;;6.40;2.50;;;9.40;99.90;;;;;;5033641;28;20220;-71
2022/12/24 08:41:03;;;;;;;12.90;3.40;;;9.50;99.90;;;;;;5033878;28;20170;-71
2022/12/24 08:43:28;;;;;;;7.80;3.90;;;9.50;99.90;;;;;;5033408;28;20235;-71
2022/12/24 08:45:54;;;;;;;9.37;4.20;;;9.50;99.90;;;;;;5033817;28;20635;-71
2022/12/24 08:48:19;;;;;;;8.50;3.10;;;9.60;99.90;;;;;;5033686;28;20202;-71
2022/12/24 08:50:45;;;;;;;6.43;3.33;;;9.60;99.90;;;;;;5033788;28;20179;-71
2022/12/24 08:53:11;;;;;;;5.33;2.77;;;9.60;99.90;;;;;;5033635;28;20220;-71
2022/12/24 08:55:36;;;;;;;4.50;2.90;;;9.50;99.90;;;;;;5033505;28;20225;-71
2022/12/24 08:58:02;;;;;;;8.47;3.03;;;9.50;99.90;;;;;;5033464;28;20482;-71
2022/12/24 09:00:28;;;;;;;9.30;3.07;;;9.50;99.90;;;;;;5033228;28;20198;-71
2022/12/24 09:02:55;;;;;;;9.40;2.67;;;9.40;99.90;;;;;;5033367;28;20252;-71
2022/12/24 09:05:20;;;;;;;8.33;2.30;;;9.40;99.90;;;;;;5033471;28;20166;-71
2022/12/24 09:07:46;;;;;;;16.80;3.50;;;9.40;99.90;;;;;;5033468;28;20413;-71
2022/12/24 09:10:11;;;;;;;6.13;3.30;;;9.40;99.90;;;;;;5033065;28;20170;-71
2022/12/24 09:12:37;;;;;;;6.60;2.83;;;9.50;99.90;;;;;;5033070;28;20333;-71
2022/12/24 09:15:06;;;;;;;7.07;3.83;;;9.60;99.90;;;;;;5033095;28;20202;-71
2022/12/24 09:17:33;;;;;;;13.57;4.37;;;9.80;99.90;;;;;;5032873;28;20475;-71
2022/12/24 09:19:59;;;;;;;7.50;3.33;;;10.10;99.90;;;;;;5032971;28;20444;-71
2022/12/24 09:22:24;;;;;;;5.90;3.00;;;10.30;99.90;;;;;;5033052;28;20437;-71
2022/12/24 09:24:52;;;;;;;11.40;3.40;;;10.70;99.90;;;;;;5033025;28;20170;-71
2022/12/24 09:27:18;;;;;;;4.57;3.30;;;11.70;99.90;;;;;;5032908;28;20191;-71
2022/12/24 09:29:43;;;;;;;6.23;3.00;;;13.00;99.90;;;;;;5032678;28;20941;-71
2022/12/24 09:32:09;;;;;;;10.30;2.83;;;13.80;99.90;;;;;;5032826;28;20198;-71
2022/12/24 09:34:34;;;;;;;5.07;3.20;;;14.00;99.90;;;;;;5032851;28;20190;-71
2022/12/24 09:37:01;;;;;;;9.50;3.43;;;13.50;99.90;;;;;;5032847;28;20193;-71
2022/12/24 09:39:27;;;;;;;9.93;3.87;;;12.80;99.90;;;;;;5032589;28;20217;-71
2022/12/24 09:42:10;;;;;;;11.13;4.40;;;12.30;99.90;;;;;;5032316;28;20433;-71
2022/12/24 09:45:15;;;;;;;17.43;3.83;;;11.90;99.90;;;;;;5032750;28;20589;-71
2022/12/24 09:47:47;;;;;;;11.23;3.20;;;11.60;99.90;;;;;;5018411;28;20429;-71
2022/12/24 09:50:38;;;;;;;11.97;3.70;;;11.70;99.90;;;;;;5032339;28;20829;-71
2022/12/24 09:53:13;;;;;;;7.70;3.60;;;11.70;99.90;;;;;;5032555;28;20443;-71
2022/12/24 09:55:53;;;;;;;9.70;2.70;;;11.60;99.90;;;;;;5032520;28;20448;-71
2022/12/24 09:58:40;;;;;;;6.30;3.03;;;11.60;99.90;;;;;;5032207;28;20413;-71
2022/12/24 10:01:11;;;;;;;5.07;3.50;;;13.20;99.90;;;;;;5032391;28;20949;-71
2022/12/24 10:03:37;;;;;;;9.60;4.00;;;15.20;99.90;;;;;;5032319;28;20475;-71
2022/12/24 10:06:23;;;;;;;7.80;3.27;;;16.50;99.90;;;;;;5032368;28;20452;-71
2022/12/24 10:09:21;;;;;;;6.17;3.50;;;17.50;99.90;;;;;;5032286;28;20636;-71
2022/12/24 10:11:59;;;;;;;7.70;3.53;;;19.10;99.90;;;;;;5032069;28;20424;-72
2022/12/24 10:14:58;;;;;;;5.13;3.47;;;18.70;99.90;;;;;;5032159;28;20460;-71
2022/12/24 10:17:50;;;;;;;7.07;4.73;;;17.40;99.90;;;;;;5032169;28;20441;-71
2022/12/24 10:20:29;;;;;;;11.77;5.93;;;16.50;99.90;;;;;;5031940;28;20409;-71
2022/12/24 10:23:21;;;;;;;10.77;6.37;;;16.20;99.90;;;;;;5032108;28;20432;-71
2022/12/24 10:26:14;;;;;;;15.67;7.10;;;16.10;99.90;;;;;;5031625;28;20421;-71
2022/12/24 10:28:54;;;;;;;15.97;7.70;;;16.60;99.90;;;;;;5030989;28;20849;-71
2022/12/24 10:31:34;;;;;;;9.37;5.33;;;16.80;99.90;;;;;;5031986;28;20413;-71
2022/12/24 10:34:04;;;;;;;14.10;10.40;;;17.00;99.90;;;;;;5031973;28;20798;-71
2022/12/24 10:36:30;;;;;;;11.17;7.80;;;16.80;99.90;;;;;;5031964;28;20435;-71
2022/12/24 10:38:56;;;;;;;18.90;11.30;;;15.90;99.90;;;;;;5031625;28;20482;-71
2022/12/24 10:41:24;;;;;;;12.77;6.70;;;15.30;99.90;;;;;;5031966;28;20420;-71
2022/12/24 10:43:50;;;;;;;10.63;4.80;;;14.80;99.90;;;;;;5031754;28;20301;-71
2022/12/24 10:46:26;;;;;;;10.13;4.20;;;14.10;99.90;;;;;;5031894;28;20511;-71
2022/12/24 10:48:59;;;;;;;17.70;6.83;;;13.80;99.90;;;;;;5031707;28;20195;-71
2022/12/24 10:51:41;;;;;;;8.53;4.40;;;13.60;99.90;;;;;;5031887;28;20449;-71
2022/12/24 10:54:13;;;;;;;7.50;4.33;;;13.60;99.90;;;;;;5031741;28;20507;-71
2022/12/24 10:56:45;;;;;;;9.33;5.43;;;13.70;99.90;;;;;;5031696;28;20456;-71
2022/12/24 10:59:51;;;;;;;8.43;3.90;;;13.80;99.90;;;;;;5031544;28;21001;-71
2022/12/24 11:02:32;;;;;;;9.43;5.20;;;14.30;99.90;;;;;;4951530;29;20455;-71
2022/12/24 11:04:59;;;;;;;10.43;4.87;;;14.40;99.90;;;;;;4951479;29;20431;-71
2022/12/24 11:07:25;;;;;;;9.23;3.70;;;14.30;99.90;;;;;;4998686;28;20467;-71
2022/12/24 11:10:00;;;;;;;8.87;4.13;;;14.00;99.90;;;;;;5031406;28;20424;-71
2022/12/24 11:12:36;;;;;;;10.20;3.97;;;13.80;99.90;;;;;;5031696;28;20474;-71
2022/12/24 11:15:13;;;;;;;9.17;4.33;;;13.50;99.90;;;;;;5031552;28;21045;-71
2022/12/24 11:17:38;;;;;;;8.60;3.50;;;13.20;99.90;;;;;;5031643;28;20462;-71
2022/12/24 11:20:05;;;;;;;6.73;3.00;;;13.20;99.90;;;;;;5031336;28;20417;-71
2022/12/24 11:22:32;;;;;;;8.60;3.93;;;13.10;99.90;;;;;;5031502;28;20190;-71
2022/12/24 11:25:03;;;;;;;18.20;5.70;;;12.80;99.90;;;;;;5031425;28;20428;-71
2022/12/24 11:27:43;;;;;;;17.93;6.13;;;12.60;99.90;;;;;;5031500;28;20420;-71
2022/12/24 11:30:14;;;;;;;13.53;6.20;;;12.40;99.90;;;;;;5031209;28;20421;-71
2022/12/24 11:32:46;;;;;;;13.13;5.17;;;12.30;99.90;;;;;;5031344;28;20428;-71
2022/12/24 11:35:21;;;;;;;11.17;3.80;;;12.40;99.90;;;;;;5031363;28;20961;-71
2022/12/24 11:38:11;;;;;;;8.03;3.00;;;12.40;99.90;;;;;;5031455;28;20416;-71
2022/12/24 11:40:46;;;;;;;9.67;5.00;;;12.50;99.90;;;;;;5034641;28;20512;-71
2022/12/24 11:43:20;;;;;;;12.33;3.57;;;12.60;99.90;;;;;;5033907;28;20490;-71
2022/12/24 11:45:49;;;;;;;9.17;5.60;;;12.70;99.90;;;;;;5034932;28;20973;-71
2022/12/24 11:48:31;;;;;;;7.77;4.50;;;12.90;99.90;;;;;;5016896;28;20837;-71
2022/12/24 11:51:02;;;;;;;7.23;3.93;;;13.30;99.90;;;;;;5034970;28;20424;-71
2022/12/24 11:53:53;;;;;;;10.73;4.00;;;13.10;99.90;;;;;;5034605;28;20886;-71
2022/12/24 11:56:54;;;;;;;6.80;2.77;;;13.00;99.90;;;;;;5034016;28;20825;-71
2022/12/24 11:59:32;;;;;;;9.60;2.50;;;12.80;99.90;;;;;;5033852;28;20490;-71
2022/12/24 12:02:04;;;;;;;8.23;2.77;;;12.70;99.90;;;;;;5034600;28;20435;-71
2022/12/24 12:04:33;;;;;;;6.70;3.17;;;12.70;99.90;;;;;;5034666;28;20781;-71
2022/12/24 12:07:09;;;;;;;5.87;3.00;;;12.90;99.90;;;;;;5034530;28;20409;-71
2022/12/24 12:09:41;;;;;;;6.73;2.87;;;13.20;99.90;;;;;;5034255;28;20451;-71
2022/12/24 12:12:14;;;;;;;8.73;3.27;;;13.40;99.90;;;;;;5034769;28;20543;-70
2022/12/24 12:14:49;;;;;;;5.93;2.93;;;13.80;99.90;;;;;;5034503;28;20816;-70
2022/12/24 12:17:38;;;;;;;5.53;2.90;;;14.00;99.90;;;;;;5034438;28;20754;-70
2022/12/24 12:20:16;;;;;;;6.77;3.43;;;14.10;99.90;;;;;;5034100;28;20415;-70
2022/12/24 12:22:58;;;;;;;8.20;3.70;;;14.10;99.90;;;;;;5034258;28;20424;-70
2022/12/24 12:25:55;;;;;;;5.93;3.30;;;14.10;99.90;;;;;;5034256;28;20421;-70
2022/12/24 12:28:48;;;;;;;5.53;3.40;;;14.40;99.90;;;;;;5033913;28;20416;-70
2022/12/24 12:31:26;;;;;;;6.73;3.50;;;14.60;99.90;;;;;;5034227;28;20828;-70
2022/12/24 12:33:55;;;;;;;6.83;2.90;;;15.50;99.90;;;;;;5034115;28;20487;-70
2022/12/24 12:36:28;;;;;;;7.33;3.17;;;16.00;99.90;;;;;;5033947;28;21069;-70
2022/12/24 12:38:54;;;;;;;9.30;3.63;;;15.70;99.90;;;;;;5033714;28;20417;-70
2022/12/24 12:41:27;;;;;;;7.70;3.30;;;15.60;99.90;;;;;;5033360;28;20945;-70
2022/12/24 12:44:14;;;;;;;5.60;2.87;;;15.50;99.90;;;;;;5033844;28;20190;-70
2022/12/24 12:47:07;;;;;;;6.67;3.60;;;15.20;99.90;;;;;;5033828;28;20531;-70
2022/12/24 12:49:51;;;;;;;7.90;3.40;;;14.70;99.90;;;;;;5033549;28;20446;-70
2022/12/24 12:52:47;;;;;;;14.27;5.70;;;14.40;99.90;;;;;;5032963;28;20800;-70
2022/12/24 12:56:06;;;;;;;5.30;3.50;;;14.10;99.90;;;;;;5033556;28;20453;-70
2022/12/24 12:58:57;;;;;;;6.63;2.80;;;14.10;99.90;;;;;;4952864;29;20429;-70
2022/12/24 13:01:30;;;;;;;11.23;3.53;;;14.20;99.90;;;;;;5033684;28;20785;-70
2022/12/24 13:03:58;;;;;;;8.50;3.50;;;14.30;99.90;;;;;;5033450;28;20769;-70
2022/12/24 13:06:42;;;;;;;9.83;3.57;;;14.20;99.90;;;;;;5033364;28;20424;-70
2022/12/24 13:09:42;;;;;;;7.13;2.63;;;14.10;99.90;;;;;;5033205;28;20428;-70
2022/12/24 13:12:25;;;;;;;12.73;3.57;;;13.70;99.90;;;;;;5002332;28;20522;-70
2022/12/24 13:15:05;;;;;;;10.20;3.97;;;13.40;99.90;;;;;;5033235;28;20449;-70